Time;durP1;ratioP1;P1;durP2;ratioP2;P2;SDS_P1;SDS_P2;PMS_P1;PMS_P2;Temp;Humidity;BMP_temperature;BMP_pressure;BME280_temperature;BME280_humidity;BME280_pressure;Samples;Min_cycle;Max_cycle;Signal;HPM_P1;HPM_P2
2022/08/30 00:02:46;;;;;;;18.02;13.53;;;;;;;19.77;76.15;100796.09;1825305;77;20878;-90
2022/08/30 00:05:15;;;;;;;18.42;14.45;;;;;;;19.74;76.28;100791.05;1825063;78;20943;-89
2022/08/30 00:07:42;;;;;;;15.65;13.38;;;;;;;19.71;76.41;100792.19;1798362;78;20939;-90
2022/08/30 00:10:09;;;;;;;19.45;13.83;;;;;;;19.69;76.61;100788.83;1825223;78;21138;-88
2022/08/30 00:12:37;;;;;;;20.62;13.98;;;;;;;19.66;76.66;100789.94;1825199;78;21381;-90
2022/08/30 00:15:05;;;;;;;17.77;13.60;;;;;;;19.64;76.67;100789.74;1825178;77;20974;-89
2022/08/30 00:17:33;;;;;;;18.20;14.03;;;;;;;19.62;76.66;100791.71;1825402;77;20923;-90
2022/08/30 00:19:59;;;;;;;20.65;14.30;;;;;;;19.61;76.60;100796.70;1825276;77;20892;-90
2022/08/30 00:22:26;;;;;;;16.67;13.28;;;;;;;19.59;76.63;100790.69;1825255;77;21213;-89
2022/08/30 00:24:52;;;;;;;14.73;12.93;;;;;;;19.57;76.63;100793.98;1826070;78;20978;-88
2022/08/30 00:27:19;;;;;;;18.10;13.55;;;;;;;19.55;76.72;100795.45;1824175;77;20851;-89
2022/08/30 00:29:45;;;;;;;20.85;13.55;;;;;;;19.53;76.60;100788.60;1821654;78;20916;-91
2022/08/30 00:32:12;;;;;;;15.50;13.50;;;;;;;19.50;76.55;100791.06;1822715;78;20958;-88
2022/08/30 00:34:39;;;;;;;19.55;13.18;;;;;;;19.48;76.80;100789.05;1823359;78;21314;-88
2022/08/30 00:37:06;;;;;;;20.40;13.60;;;;;;;19.50;76.92;100787.55;1824034;78;20937;-89
2022/08/30 00:39:33;;;;;;;17.85;13.72;;;;;;;19.51;76.91;100786.58;1821734;78;20883;-90
2022/08/30 00:41:59;;;;;;;14.47;12.10;;;;;;;19.51;76.73;100790.56;1821621;78;20888;-89
2022/08/30 00:44:26;;;;;;;16.87;13.30;;;;;;;19.51;76.51;100783.92;1821530;78;21511;-90
2022/08/30 00:46:52;;;;;;;17.55;12.30;;;;;;;19.49;76.42;100785.38;1821634;78;21133;-90
2022/08/30 00:49:19;;;;;;;23.98;13.58;;;;;;;19.47;76.35;100780.70;1821765;78;20916;-90
2022/08/30 00:51:47;;;;;;;17.12;13.58;;;;;;;19.43;76.38;100778.84;1821796;78;20927;-89
2022/08/30 00:54:13;;;;;;;18.92;13.28;;;;;;;19.36;76.49;100777.72;1821817;78;20939;-89
2022/08/30 00:56:40;;;;;;;21.00;14.20;;;;;;;19.31;76.76;100781.32;1821870;78;21353;-89
2022/08/30 00:59:06;;;;;;;19.00;12.78;;;;;;;19.28;76.96;100788.27;1821968;78;21199;-90
2022/08/30 01:01:34;;;;;;;23.27;14.05;;;;;;;19.25;77.17;100788.53;1816823;78;20970;-90
2022/08/30 01:04:02;;;;;;;18.05;12.25;;;;;;;19.22;77.38;100781.69;1821876;78;20998;-91
2022/08/30 01:06:29;;;;;;;14.07;11.60;;;;;;;19.21;77.39;100784.52;1821862;78;20899;-91
2022/08/30 01:08:55;;;;;;;17.30;13.03;;;;;;;19.15;77.65;100787.25;1822101;78;20908;-91
2022/08/30 01:11:22;;;;;;;24.57;12.20;;;;;;;19.14;78.00;100790.04;1822299;78;21240;-89
2022/08/30 01:13:49;;;;;;;16.70;13.10;;;;;;;19.13;78.11;100787.88;1822144;78;20868;-89
2022/08/30 01:16:16;;;;;;;19.95;13.70;;;;;;;19.14;78.11;100788.71;1817097;78;20935;-91
2022/08/30 01:18:44;;;;;;;16.65;12.55;;;;;;;19.13;78.10;100788.38;1822215;78;20891;-90
2022/08/30 01:21:34;;;;;;;20.23;11.45;;;;;;;19.10;77.96;100788.17;1822244;78;20911;-90
2022/08/30 01:24:01;;;;;;;17.37;12.00;;;;;;;19.08;78.02;100787.48;1822312;78;21110;-91
2022/08/30 01:26:29;;;;;;;13.48;11.80;;;;;;;19.08;77.88;100791.97;1822203;78;20934;-90
2022/08/30 01:29:00;;;;;;;18.87;12.20;;;;;;;19.07;77.84;100794.26;1824980;77;20920;-91
2022/08/30 01:31:27;;;;;;;18.10;11.97;;;;;;;19.05;77.85;100797.91;1826036;77;20877;-90
2022/08/30 01:33:54;;;;;;;15.93;12.50;;;;;;;19.02;77.89;100792.86;1827117;78;20931;-90
2022/08/30 01:36:20;;;;;;;15.75;11.00;;;;;;;18.97;77.76;100788.47;1826775;77;21247;-91
2022/08/30 01:38:51;;;;;;;16.00;12.53;;;;;;;18.94;78.17;100791.42;1826167;77;20907;-89
2022/08/30 01:41:22;;;;;;;21.25;12.33;;;;;;;18.94;78.36;100793.22;1825929;78;20982;-90
2022/08/30 01:43:49;;;;;;;15.85;12.28;;;;;;;18.92;78.41;100797.84;1825731;78;20939;-90
2022/08/30 01:46:18;;;;;;;13.62;10.72;;;;;;;18.90;78.40;100789.17;1826789;78;20979;-89
2022/08/30 01:48:46;;;;;;;16.27;10.88;;;;;;;18.89;78.40;100793.66;1825594;77;21236;-89
2022/08/30 01:51:13;;;;;;;13.60;11.73;;;;;;;18.87;78.44;100792.95;1825262;77;20967;-88
2022/08/30 01:53:41;;;;;;;14.63;11.68;;;;;;;18.84;78.46;100794.08;1825424;78;20942;-89
2022/08/30 01:56:07;;;;;;;23.07;11.97;;;;;;;18.81;78.47;100789.06;1825422;78;20899;-89
2022/08/30 01:58:35;;;;;;;16.73;11.57;;;;;;;18.79;78.45;100791.52;1827701;77;21205;-89
2022/08/30 02:01:03;;;;;;;19.00;11.78;;;;;;;18.76;78.51;100791.74;1827340;78;21918;-89
2022/08/30 02:03:33;;;;;;;15.13;12.13;;;;;;;18.73;78.47;100793.37;1825492;78;20883;-89
2022/08/30 02:06:03;;;;;;;22.82;12.03;;;;;;;18.69;78.53;100793.30;1825188;78;20867;-88
2022/08/30 02:08:30;;;;;;;13.83;10.43;;;;;;;18.66;78.62;100791.77;1786414;80;20882;-89
2022/08/30 02:10:58;;;;;;;14.38;11.68;;;;;;;18.63;78.55;100797.33;1756879;81;21371;-88
2022/08/30 02:13:29;;;;;;;21.57;11.75;;;;;;;18.60;78.60;100794.97;1786399;80;21113;-91
2022/08/30 02:15:56;;;;;;;16.20;11.35;;;;;;;18.56;78.69;100798.38;1786335;80;20936;-90
2022/08/30 02:18:24;;;;;;;15.05;11.75;;;;;;;18.55;78.78;100809.16;1786366;79;20910;-90
2022/08/30 02:20:51;;;;;;;22.32;11.35;;;;;;;18.53;78.95;100804.48;1786280;80;20917;-90
2022/08/30 02:23:20;;;;;;;15.75;10.15;;;;;;;18.50;79.03;100806.94;1786344;80;20850;-89
2022/08/30 02:25:46;;;;;;;18.25;11.08;;;;;;;18.48;78.94;100808.88;1786214;80;20918;-88
2022/08/30 02:28:14;;;;;;;17.02;11.88;;;;;;;18.47;79.00;100807.19;1788539;80;20908;-89
2022/08/30 02:30:41;;;;;;;14.43;11.03;;;;;;;18.48;79.10;100810.70;1791684;80;20846;-90
2022/08/30 02:33:09;;;;;;;14.65;11.90;;;;;;;18.48;78.92;100806.72;1791616;80;20893;-90
2022/08/30 02:35:36;;;;;;;17.60;12.00;;;;;;;18.49;79.07;100809.72;1791677;80;20873;-89
2022/08/30 02:38:05;;;;;;;14.83;10.80;;;;;;;18.50;79.11;100816.23;1791645;80;21824;-90
2022/08/30 02:40:31;;;;;;;15.58;10.65;;;;;;;18.52;78.91;100810.75;1791434;80;21520;-90
2022/08/30 02:42:58;;;;;;;20.65;10.98;;;;;;;18.52;78.66;100805.44;1791793;80;20906;-90
2022/08/30 02:45:25;;;;;;;22.98;11.88;;;;;;;18.52;78.56;100812.08;1791600;80;20961;-88
2022/08/30 02:47:51;;;;;;;20.20;11.25;;;;;;;18.52;78.61;100816.06;1791669;80;21332;-88
2022/08/30 02:50:18;;;;;;;19.32;11.08;;;;;;;18.50;78.44;100812.24;1791850;80;21398;-91
2022/08/30 02:52:45;;;;;;;15.98;10.78;;;;;;;18.48;78.57;100810.70;1791792;80;21481;-92
2022/08/30 02:55:11;;;;;;;21.48;11.55;;;;;;;18.47;78.59;100806.36;1792850;80;21043;-90
2022/08/30 02:57:38;;;;;;;16.27;11.78;;;;;;;18.47;78.69;100814.33;1791912;80;21040;-89
2022/08/30 03:00:07;;;;;;;22.65;12.47;;;;;;;18.48;78.89;100810.21;1791835;80;21003;-93
2022/08/30 03:02:35;;;;;;;16.20;12.35;;;;;;;18.52;78.89;100815.60;1791890;80;21224;-90
2022/08/30 03:05:03;;;;;;;22.75;12.13;;;;;;;18.56;78.87;100814.31;1791819;80;20940;-89
2022/08/30 03:07:30;;;;;;;17.55;12.18;;;;;;;18.58;78.80;100817.67;1791617;80;20890;-91
2022/08/30 03:09:57;;;;;;;22.70;12.33;;;;;;;18.61;78.61;100817.91;1791760;80;20945;-90
2022/08/30 03:12:24;;;;;;;16.70;10.90;;;;;;;18.62;78.31;100824.89;1792098;80;20949;-91
2022/08/30 03:14:52;;;;;;;19.82;11.50;;;;;;;18.62;78.03;100833.69;1791949;80;22087;-91
2022/08/30 03:17:18;;;;;;;14.90;10.55;;;;;;;18.61;77.81;100838.67;1791885;80;22386;-90
2022/08/30 03:19:45;;;;;;;20.25;12.65;;;;;;;18.61;77.67;100836.51;1792003;80;20944;-89
2022/08/30 03:22:12;;;;;;;17.00;12.58;;;;;;;18.61;77.60;100841.82;1792301;80;21020;-90
2022/08/30 03:24:39;;;;;;;19.82;12.33;;;;;;;18.60;77.66;100842.28;1792772;80;20897;-89
2022/08/30 03:27:06;;;;;;;18.07;13.45;;;;;;;18.61;77.70;100843.98;1792944;80;21425;-89
2022/08/30 03:29:34;;;;;;;28.70;15.50;;;;;;;18.62;77.79;100853.61;1758000;80;20938;-89
2022/08/30 03:32:01;;;;;;;26.35;13.78;;;;;;;18.63;77.90;100846.48;1738854;82;20919;-91
2022/08/30 03:34:27;;;;;;;24.85;14.70;;;;;;;18.64;77.95;100846.34;1738768;80;21045;-89
2022/08/30 03:36:54;;;;;;;22.35;14.65;;;;;;;18.66;77.99;100848.05;1738941;79;20951;-91
2022/08/30 03:39:22;;;;;;;25.55;14.38;;;;;;;18.67;77.98;100849.70;1737608;82;21173;-90
2022/08/30 03:41:50;;;;;;;22.25;13.05;;;;;;;18.70;78.08;100848.95;1736462;82;20911;-91
2022/08/30 03:44:16;;;;;;;23.47;14.20;;;;;;;18.73;78.07;100841.19;1736410;82;20935;-92
2022/08/30 03:46:44;;;;;;;23.55;14.03;;;;;;;18.77;78.14;100848.77;1736354;82;21464;-91
2022/08/30 03:49:11;;;;;;;18.50;13.68;;;;;;;18.80;78.13;100843.16;1736560;82;20943;-91
2022/08/30 03:51:42;;;;;;;26.37;13.08;;;;;;;18.86;78.16;100844.44;1738236;82;20903;-92
2022/08/30 03:54:09;;;;;;;21.97;13.08;;;;;;;18.92;78.12;100840.36;1737445;81;20907;-91
2022/08/30 03:56:36;;;;;;;24.95;14.93;;;;;;;18.99;78.04;100841.50;1707715;82;20954;-92
2022/08/30 03:59:02;;;;;;;22.50;12.85;;;;;;;19.04;77.85;100837.42;1736310;81;21507;-91
2022/08/30 04:01:32;;;;;;;19.37;13.13;;;;;;;19.10;77.71;100844.00;1736682;82;21409;-92
2022/08/30 04:03:59;;;;;;;29.25;12.90;;;;;;;19.17;77.52;100845.60;1737698;82;21114;-89
2022/08/30 04:06:26;;;;;;;22.40;14.23;;;;;;;19.22;77.32;100842.02;1736057;81;20985;-89
2022/08/30 04:08:52;;;;;;;21.62;13.08;;;;;;;19.28;77.22;100844.61;1735980;82;21413;-92
2022/08/30 04:11:21;;;;;;;21.05;12.10;;;;;;;19.34;76.96;100846.67;1736129;82;21448;-92
2022/08/30 04:13:50;;;;;;;28.45;12.60;;;;;;;19.41;76.69;100847.30;1736160;81;20939;-90
2022/08/30 04:16:18;;;;;;;21.52;12.05;;;;;;;19.49;76.37;100851.05;1736004;81;21133;-90
2022/08/30 04:18:45;;;;;;;23.25;13.05;;;;;;;19.56;76.06;100856.14;1736078;82;20907;-92
2022/08/30 04:21:12;;;;;;;23.57;13.28;;;;;;;19.62;75.88;100854.23;1736469;82;21104;-90
2022/08/30 04:23:38;;;;;;;28.73;13.32;;;;;;;19.68;75.65;100856.32;1737539;82;20954;-90
2022/08/30 04:26:05;;;;;;;33.90;15.75;;;;;;;19.76;75.46;100857.77;1739086;79;20962;-91
2022/08/30 04:28:34;;;;;;;31.30;13.98;;;;;;;19.84;75.65;100852.56;1752862;79;21361;-92
2022/08/30 04:31:08;;;;;;;33.53;15.98;;;;;;;19.92;75.54;100857.17;1783269;80;20864;-91
2022/08/30 04:33:35;;;;;;;30.15;14.23;;;;;;;20.00;75.89;100852.43;1783085;80;20852;-92
2022/08/30 04:36:03;;;;;;;32.50;15.20;;;;;;;20.13;75.88;100857.41;1783104;80;21338;-90
2022/08/30 04:38:32;;;;;;;26.10;14.90;;;;;;;20.24;75.94;100860.70;1821938;78;20884;-90
2022/08/30 04:43:28;;;;;;;26.85;15.45;;;;;;;20.54;75.13;100856.02;1798676;78;22641;-88
2022/08/30 04:45:56;;;;;;;42.85;16.80;;;;;;;20.63;74.74;100863.63;1765548;80;20967;-93
2022/08/30 04:48:23;;;;;;;30.97;17.55;;;;;;;20.80;74.66;100860.64;1782274;80;21802;-91
2022/08/30 04:50:50;;;;;;;29.30;14.75;;;;;;;20.99;74.32;100864.48;1771542;79;20911;-91
2022/08/30 04:53:16;;;;;;;38.98;15.20;;;;;;;21.25;74.06;100865.83;1786337;80;21137;-91
2022/08/30 04:55:43;;;;;;;53.08;14.65;;;;;;;21.64;73.36;100857.95;1784069;79;20978;-92
2022/08/30 04:58:10;;;;;;;29.30;15.20;;;;;;;22.11;72.03;100869.52;1761531;80;21060;-92
2022/08/30 05:00:37;;;;;;;34.67;14.65;;;;;;;22.69;70.39;100862.51;1772784;79;21906;-90
2022/08/30 05:03:03;;;;;;;29.85;12.60;;;;;;;23.36;68.09;100859.67;1776997;79;20962;-90
2022/08/30 05:05:43;;;;;;;33.70;13.85;;;;;;;24.05;66.04;100862.67;1761866;80;20973;-90
2022/08/30 05:08:13;;;;;;;34.58;13.15;;;;;;;24.78;63.84;100865.97;1792619;79;21165;-90
2022/08/30 05:10:42;;;;;;;31.07;13.22;;;;;;;25.56;61.41;100862.09;1776680;79;21014;-89
2022/08/30 05:13:09;;;;;;;26.95;12.98;;;;;;;26.28;59.45;100868.66;1771238;79;21101;-90
2022/08/30 05:15:36;;;;;;;27.77;14.00;;;;;;;26.95;57.13;100871.53;1776798;80;20936;-90
2022/08/30 05:18:03;;;;;;;36.45;15.98;;;;;;;27.56;55.13;100866.94;1791560;80;20904;-90
2022/08/30 05:20:30;;;;;;;48.02;13.68;;;;;;;28.15;53.43;100861.56;1784878;80;20893;-88
2022/08/30 05:22:56;;;;;;;30.95;13.25;;;;;;;28.72;52.22;100861.63;1784325;80;20887;-90
2022/08/30 05:25:26;;;;;;;33.28;14.18;;;;;;;29.26;50.86;100857.09;1766116;80;21123;-86
2022/08/30 05:27:55;;;;;;;36.70;14.18;;;;;;;29.77;49.65;100860.11;1767405;79;20934;-88
2022/08/30 05:30:23;;;;;;;26.68;12.55;;;;;;;30.28;48.57;100858.80;1766090;79;21511;-89
2022/08/30 05:32:49;;;;;;;22.15;11.95;;;;;;;30.75;47.40;100865.27;1793492;80;21464;-89
2022/08/30 05:35:17;;;;;;;29.98;12.68;;;;;;;31.21;46.76;100864.59;1772059;79;20903;-89
2022/08/30 05:37:44;;;;;;;30.65;12.85;;;;;;;31.65;46.17;100855.94;1788008;80;22024;-90
2022/08/30 05:40:11;;;;;;;25.23;12.03;;;;;;;32.04;45.79;100856.02;1787611;80;20922;-91
2022/08/30 05:42:41;;;;;;;30.05;12.28;;;;;;;32.42;45.03;100854.88;1778715;79;21464;-91
2022/08/30 05:45:08;;;;;;;36.53;12.73;;;;;;;32.80;44.34;100853.70;1774597;80;20899;-90
2022/08/30 05:47:36;;;;;;;28.80;11.88;;;;;;;33.15;42.74;100852.40;1764021;80;20930;-90
2022/08/30 05:50:05;;;;;;;29.10;11.45;;;;;;;33.49;41.83;100856.69;1784132;80;21080;-92
2022/08/30 05:52:40;;;;;;;38.08;12.05;;;;;;;33.84;41.00;100858.01;1785596;80;21018;-91
2022/08/30 05:55:09;;;;;;;29.70;11.95;;;;;;;34.17;40.41;100855.66;1763959;80;20931;-91
2022/08/30 05:57:37;;;;;;;23.47;11.68;;;;;;;34.44;39.55;100844.47;1788082;76;20978;-92
2022/08/30 06:00:09;;;;;;;28.67;11.53;;;;;;;34.73;39.06;100854.50;1773961;80;20951;-92
2022/08/30 06:02:38;;;;;;;20.27;9.58;;;;;;;34.99;38.54;100855.73;1796977;76;21142;-92
2022/08/30 06:05:05;;;;;;;22.07;10.53;;;;;;;35.25;38.05;100858.35;1783076;79;21182;-92
2022/08/30 06:07:34;;;;;;;19.25;10.75;;;;;;;35.50;37.58;100853.78;1761243;80;20946;-94
2022/08/30 06:10:01;;;;;;;24.37;9.93;;;;;;;35.77;37.14;100856.60;1771748;80;20903;-92
2022/08/30 06:12:28;;;;;;;20.50;10.10;;;;;;;36.02;36.52;100853.36;1782912;80;20883;-95
2022/08/30 06:14:55;;;;;;;21.45;9.80;;;;;;;36.26;36.16;100854.45;1771784;80;21130;-91
2022/08/30 06:17:22;;;;;;;21.37;9.88;;;;;;;36.48;35.80;100853.84;1761258;79;20962;-92
2022/08/30 06:19:49;;;;;;;19.17;9.65;;;;;;;36.67;35.59;100857.05;1786058;80;20880;-93
2022/08/30 06:22:15;;;;;;;23.20;9.93;;;;;;;36.91;35.11;100858.89;1787613;79;20935;-93
2022/08/30 06:24:42;;;;;;;21.15;8.45;;;;;;;37.12;34.82;100853.03;1792662;80;21534;-92
2022/08/30 06:27:09;;;;;;;19.77;7.55;;;;;;;37.33;33.99;100850.41;1772048;80;21131;-92
2022/08/30 06:29:37;;;;;;;17.32;8.05;;;;;;;37.59;33.23;100858.79;1770366;80;21069;-91
2022/08/30 06:32:04;;;;;;;20.17;8.48;;;;;;;37.82;32.22;100862.45;1790082;80;21554;-91
2022/08/30 06:34:31;;;;;;;24.20;8.95;;;;;;;38.03;32.41;100861.17;1792477;80;21054;-92
2022/08/30 06:36:58;;;;;;;18.27;10.58;;;;;;;38.24;32.25;100857.36;1792650;80;21484;-93
2022/08/30 06:39:25;;;;;;;15.05;7.60;;;;;;;38.38;32.00;100858.20;1773270;80;21123;-92
2022/08/30 06:41:51;;;;;;;17.42;8.20;;;;;;;38.35;31.37;100852.73;1787166;79;20973;-92
2022/08/30 06:44:26;;;;;;;17.60;10.20;;;;;;;38.35;31.45;100859.58;1786557;79;20892;-92
2022/08/30 06:46:52;;;;;;;18.52;9.68;;;;;;;38.38;31.74;100858.20;1761809;80;21141;-90
2022/08/30 06:49:22;;;;;;;18.02;9.58;;;;;;;38.53;31.31;100856.88;1777235;80;20975;-93
2022/08/30 06:51:52;;;;;;;13.53;7.67;;;;;;;38.59;31.46;100855.79;1772429;80;21029;-90
2022/08/30 06:54:19;;;;;;;19.77;8.43;;;;;;;38.67;31.43;100857.17;1724113;80;20873;-91
2022/08/30 06:56:45;;;;;;;17.92;9.13;;;;;;;38.85;31.08;100857.16;1778856;80;20959;-90
2022/08/30 06:59:12;;;;;;;17.75;8.03;;;;;;;39.12;30.83;100864.55;1778680;80;21006;-91
2022/08/30 07:01:40;;;;;;;16.23;9.05;;;;;;;39.43;30.48;100863.13;1785738;80;20868;-90
2022/08/30 07:04:09;;;;;;;20.57;9.20;;;;;;;39.71;29.98;100857.53;1779202;80;21892;-91
2022/08/30 07:06:37;;;;;;;40.08;10.63;;;;;;;40.01;29.58;100861.80;1771398;80;20970;-90
2022/08/30 07:09:06;;;;;;;26.70;9.70;;;;;;;40.33;29.40;100858.05;1777175;80;20939;-91
2022/08/30 07:11:35;;;;;;;26.87;10.03;;;;;;;40.59;29.14;100855.09;1784183;80;20962;-93
2022/08/30 07:14:04;;;;;;;19.40;9.28;;;;;;;40.80;28.86;100859.34;1792431;80;20951;-91
2022/08/30 07:16:31;;;;;;;19.67;9.88;;;;;;;40.99;28.60;100859.41;1772799;80;21484;-90
2022/08/30 07:18:59;;;;;;;22.17;11.20;;;;;;;41.09;28.26;100861.27;1770740;79;20880;-91
2022/08/30 07:21:32;;;;;;;22.70;12.58;;;;;;;41.13;28.13;100861.48;1772615;80;21491;-92
2022/08/30 07:23:59;;;;;;;25.12;10.50;;;;;;;41.01;27.42;100859.95;1767012;80;20918;-92
2022/08/30 07:26:34;;;;;;;23.02;10.10;;;;;;;40.86;27.48;100855.97;1792736;80;20963;-93
2022/08/30 07:29:01;;;;;;;18.23;12.33;;;;;;;40.84;27.24;100854.06;1770084;80;21396;-92
2022/08/30 07:31:30;;;;;;;23.60;11.43;;;;;;;40.84;27.02;100857.37;1778902;80;21424;-92
2022/08/30 07:33:57;;;;;;;24.43;12.45;;;;;;;40.77;26.99;100860.46;1795732;80;21073;-92
2022/08/30 07:36:23;;;;;;;30.50;11.60;;;;;;;40.87;26.91;100856.78;1792787;80;21050;-93
2022/08/30 07:38:53;;;;;;;24.15;11.83;;;;;;;40.97;26.96;100857.51;1789450;79;20924;-91
2022/08/30 07:41:24;;;;;;;27.40;13.28;;;;;;;41.15;26.75;100853.22;1778967;78;21190;-91
2022/08/30 07:43:51;;;;;;;19.95;12.25;;;;;;;41.32;26.71;100850.58;1774239;79;20896;-92
2022/08/30 07:46:18;;;;;;;23.55;12.75;;;;;;;41.43;26.39;100852.91;1785014;80;20943;-91
2022/08/30 07:48:45;;;;;;;30.23;13.25;;;;;;;41.42;26.31;100851.81;1789862;80;20896;-92
2022/08/30 07:51:18;;;;;;;22.35;12.35;;;;;;;41.55;26.19;100855.23;1794591;80;21436;-90
2022/08/30 07:53:45;;;;;;;24.15;19.00;;;;;;;41.80;25.99;100855.50;1793725;80;21270;-92
2022/08/30 07:56:12;;;;;;;26.65;13.72;;;;;;;42.05;25.56;100848.02;1776691;79;20951;-92
2022/08/30 07:58:38;;;;;;;20.32;10.13;;;;;;;42.20;24.95;100849.70;1788309;80;20863;-92
2022/08/30 08:01:08;;;;;;;16.97;13.32;;;;;;;42.32;24.93;100849.27;1791327;80;21515;-94
2022/08/30 08:03:35;;;;;;;16.87;9.48;;;;;;;42.46;24.13;100847.39;1780433;80;21405;-93
2022/08/30 08:06:04;;;;;;;22.25;11.53;;;;;;;42.59;23.43;100852.12;1788185;80;21070;-92
2022/08/30 08:08:31;;;;;;;17.95;10.20;;;;;;;42.77;23.42;100849.05;1777747;80;21096;-92
2022/08/30 08:10:58;;;;;;;23.98;11.55;;;;;;;42.96;23.39;100849.03;1774787;80;20832;-90
2022/08/30 08:13:28;;;;;;;20.80;9.90;;;;;;;43.14;23.35;100850.06;1764374;80;20976;-92
2022/08/30 08:15:55;;;;;;;21.95;12.82;;;;;;;43.21;23.27;100844.14;1782717;80;21017;-92
2022/08/30 08:18:24;;;;;;;20.65;11.60;;;;;;;43.21;22.86;100843.56;1766532;79;21154;-91
2022/08/30 08:20:50;;;;;;;25.85;10.28;;;;;;;43.09;22.71;100848.80;1780572;80;21021;-92
2022/08/30 08:23:17;;;;;;;17.27;7.87;;;;;;;43.01;22.29;100843.97;1776916;79;20943;-92
2022/08/30 08:25:44;;;;;;;19.80;8.00;;;;;;;42.90;21.72;100843.34;1776483;80;20932;-92
2022/08/30 08:28:11;;;;;;;17.12;7.70;;;;;;;42.90;21.23;100841.16;1782906;80;20939;-92
2022/08/30 08:30:47;;;;;;;18.77;7.40;;;;;;;42.90;21.41;100841.16;1793512;80;21142;-93
2022/08/30 08:33:17;;;;;;;18.32;7.10;;;;;;;42.94;20.90;100832.52;1792530;80;20990;-92
2022/08/30 08:35:45;;;;;;;16.87;6.85;;;;;;;42.96;20.43;100838.56;1786244;80;20986;-91
2022/08/30 08:38:11;;;;;;;12.95;7.65;;;;;;;43.04;20.26;100838.64;1766887;80;20900;-91
2022/08/30 08:41:04;;;;;;;14.55;7.03;;;;;;;43.10;20.27;100831.66;1792507;80;21430;-89
2022/08/30 08:43:36;;;;;;;16.35;6.75;;;;;;;43.10;20.16;100834.42;1784762;80;21247;-90
2022/08/30 08:46:34;;;;;;;17.60;7.65;;;;;;;43.11;19.87;100827.19;1792396;80;21424;-89
2022/08/30 08:49:04;;;;;;;13.43;6.70;;;;;;;43.13;19.87;100822.75;1792359;79;21484;-90
2022/08/30 08:54:55;;;;;;;13.20;7.30;;;;;;;42.96;19.57;100824.19;1776111;80;20967;-89
2022/08/30 08:57:21;;;;;;;14.23;8.93;;;;;;;42.91;19.07;100813.80;1784846;80;21143;-91
2022/08/30 08:59:53;;;;;;;14.40;6.03;;;;;;;42.94;20.01;100815.39;1794959;80;21738;-91
2022/08/30 09:02:31;;;;;;;20.35;7.70;;;;;;;42.98;19.83;100810.06;1796652;76;20967;-92
2022/08/30 09:05:00;;;;;;;21.52;8.48;;;;;;;43.08;20.03;100809.87;1752843;80;21085;-92
2022/08/30 09:07:31;;;;;;;10.55;6.97;;;;;;;43.25;19.65;100813.44;1778638;80;20998;-93
2022/08/30 09:09:59;;;;;;;12.05;7.12;;;;;;;43.21;18.99;100807.67;1767319;80;21161;-92
2022/08/30 09:12:29;;;;;;;20.43;13.98;;;;;;;43.13;18.72;100802.86;1780764;79;21014;-93
2022/08/30 09:15:17;;;;;;;8.58;6.35;;;;;;;43.18;19.23;100797.80;1766862;80;20903;-92
2022/08/30 09:18:03;;;;;;;14.15;7.65;;;;;;;43.32;18.85;100793.70;1775782;80;21373;-93
2022/08/30 09:20:47;;;;;;;16.37;13.70;;;;;;;43.39;18.51;100793.52;1782346;80;21474;-92
2022/08/30 09:23:19;;;;;;;14.38;6.92;;;;;;;43.61;18.81;100795.53;1771637;79;21162;-94
2022/08/30 09:25:58;;;;;;;14.90;6.12;;;;;;;43.86;18.29;100794.71;1748479;79;20943;-91
2022/08/30 09:28:33;;;;;;;19.80;10.63;;;;;;;43.93;17.77;100797.85;1737409;80;20935;-92
2022/08/30 09:31:07;;;;;;;14.85;6.78;;;;;;;44.01;17.87;100796.30;1749646;80;20904;-93
2022/08/30 09:33:35;;;;;;;10.23;5.62;;;;;;;44.18;18.08;100799.23;1791304;80;21419;-92
2022/08/30 09:36:28;;;;;;;11.28;5.33;;;;;;;44.22;17.26;100803.55;1762735;80;21193;-93
2022/08/30 09:39:18;;;;;;;14.40;7.30;;;;;;;44.11;17.22;100798.83;1766169;80;21004;-94
2022/08/30 09:41:49;;;;;;;17.60;15.63;;;;;;;44.03;17.54;100799.03;1764397;80;20917;-96
2022/08/30 09:44:22;;;;;;;13.93;8.80;;;;;;;44.04;17.80;100803.98;1763028;80;20957;-96
2022/08/30 09:46:56;;;;;;;7.65;6.25;;;;;;;44.19;17.94;100803.61;1767702;81;20913;-94
2022/08/30 09:49:32;;;;;;;8.60;4.90;;;;;;;44.33;17.63;100801.34;1723731;81;21309;-95
2022/08/30 09:52:17;;;;;;;23.75;17.20;;;;;;;44.45;17.37;100799.67;1749530;80;20908;-96
2022/08/30 09:55:25;;;;;;;12.45;9.10;;;;;;;44.52;17.35;100797.84;1762543;80;20940;-94
2022/08/30 09:58:31;;;;;;;9.70;6.90;;;;;;;44.59;17.21;100794.05;1758120;80;21505;-95
2022/08/30 10:01:21;;;;;;;12.40;5.65;;;;;;;44.60;17.08;100793.47;1766261;80;20858;-93
2022/08/30 10:03:56;;;;;;;16.62;8.58;;;;;;;44.60;16.89;100787.39;1732192;80;21405;-94
2022/08/30 10:06:36;;;;;;;81.22;75.37;;;;;;;44.53;16.89;100791.16;1725161;80;21017;-94
2022/08/30 10:09:21;;;;;;;7.40;6.28;;;;;;;44.57;17.14;100784.44;1721577;81;21245;-94
2022/08/30 10:12:03;;;;;;;10.20;5.37;;;;;;;44.64;17.25;100788.36;1714721;82;20917;-94
2022/08/30 10:15:00;;;;;;;15.63;9.83;;;;;;;44.61;16.82;100782.09;1670699;82;20934;-93
2022/08/30 10:17:53;;;;;;;10.15;8.03;;;;;;;44.54;17.02;100778.16;1732727;82;21112;-96
2022/08/30 10:20:46;;;;;;;12.37;6.33;;;;;;;44.49;16.75;100779.09;1723373;82;21652;-96
2022/08/30 10:23:21;;;;;;;13.15;6.78;;;;;;;44.33;17.00;100777.84;1712174;82;21017;-95
2022/08/30 10:25:59;;;;;;;13.30;7.87;;;;;;;44.17;16.86;100777.42;1715179;82;20864;-93
2022/08/30 10:28:36;;;;;;;8.83;5.67;;;;;;;43.96;17.32;100778.44;1687119;82;20975;-95
2022/08/30 10:31:10;;;;;;;14.33;5.58;;;;;;;43.83;17.46;100771.29;1717257;82;21885;-94
2022/08/30 10:33:42;;;;;;;9.45;5.15;;;;;;;43.76;17.51;100773.67;1725957;82;21010;-96
2022/08/30 10:36:16;;;;;;;13.22;5.62;;;;;;;43.44;17.34;100770.50;1720343;82;21061;-92
2022/08/30 10:38:48;;;;;;;10.15;4.80;;;;;;;43.12;17.50;100768.12;1719213;82;21021;-94
2022/08/30 10:41:40;;;;;;;11.88;4.75;;;;;;;43.19;17.95;100764.94;1727950;82;20978;-95
2022/08/30 10:44:10;;;;;;;;;;;;;;;43.26;17.41;100760.65;1733848;82;21137;-94
2022/08/30 10:46:59;;;;;;;10.60;5.35;;;;;;;43.12;17.51;100767.30;1729621;82;20155;-94
2022/08/30 10:49:29;;;;;;;12.47;5.28;;;;;;;43.08;17.51;100759.37;1728702;82;20998;-96
2022/08/30 10:52:32;;;;;;;12.93;5.05;;;;;;;43.08;17.73;100742.25;1719045;80;20931;-94
2022/08/30 10:55:12;;;;;;;12.93;7.45;;;;;;;43.21;17.23;100757.98;1717713;80;20904;-93
2022/08/30 10:57:40;;;;;;;8.95;4.83;;;;;;;43.16;17.74;100753.14;1718595;80;21006;-93
2022/08/30 11:00:11;;;;;;;15.68;7.42;;;;;;;43.26;17.62;100753.75;1707445;80;20984;-92
2022/08/30 11:03:26;;;;;;;12.00;5.60;;;;;;;43.43;17.93;100750.92;1728739;80;20862;-94
2022/08/30 11:06:26;;;;;;;15.98;7.53;;;;;;;43.58;17.57;100738.14;1731178;82;20969;-95
2022/08/30 11:09:21;;;;;;;11.48;7.17;;;;;;;43.65;17.44;100739.94;1729862;82;20985;-93
2022/08/30 11:12:18;;;;;;;11.60;6.62;;;;;;;43.79;17.11;100737.11;1694931;83;21387;-94
2022/08/30 11:14:48;;;;;;;9.65;5.30;;;;;;;43.82;17.03;100738.44;1710360;79;20959;-95
2022/08/30 11:17:29;;;;;;;11.18;6.03;;;;;;;43.82;16.88;100735.67;1725777;82;21827;-93
2022/08/30 11:20:00;;;;;;;11.75;6.83;;;;;;;43.86;16.80;100734.72;1732670;80;21042;-93
2022/08/30 11:22:33;;;;;;;10.03;5.80;;;;;;;43.94;17.02;100731.79;1728352;79;20911;-94
2022/08/30 11:25:15;;;;;;;20.65;6.67;;;;;;;43.95;16.75;100732.02;1728627;79;21220;-94
2022/08/30 11:27:51;;;;;;;14.30;6.55;;;;;;;43.87;17.29;100730.84;1712209;80;21083;-92
2022/08/30 11:30:31;;;;;;;18.90;5.80;;;;;;;43.76;17.19;100735.53;1723397;79;20863;-93
2022/08/30 11:33:19;;;;;;;9.65;5.55;;;;;;;43.77;17.16;100731.08;1719613;80;21077;-92
2022/08/30 11:35:52;;;;;;;12.88;5.60;;;;;;;43.76;17.31;100725.86;1659675;83;21064;-94